Time;durP1;ratioP1;P1;durP2;ratioP2;P2;SDS_P1;SDS_P2;PMS_P1;PMS_P2;Temp;Humidity;BMP_temperature;BMP_pressure;BME280_temperature;BME280_humidity;BME280_pressure;Samples;Min_cycle;Max_cycle;Signal;HPM_P1;HPM_P2
2023/07/07 00:02:00;;;;;;;7.57;4.68;;;;;;;20.56;51.74;99390.75;5128551;28;20039;-70
2023/07/07 00:04:28;;;;;;;6.10;4.70;;;;;;;20.57;51.42;99394.28;5128550;28;20055;-71
2023/07/07 00:06:55;;;;;;;6.38;4.57;;;;;;;20.46;51.76;99398.00;5128483;28;20054;-71
2023/07/07 00:09:24;;;;;;;5.93;4.40;;;;;;;20.36;51.94;99375.66;5128747;28;20074;-71
2023/07/07 00:11:51;;;;;;;7.00;4.95;;;;;;;20.47;52.09;99392.47;5128439;28;20043;-71
2023/07/07 00:14:18;;;;;;;6.60;4.80;;;;;;;20.35;52.38;99393.63;5128340;28;20055;-71
2023/07/07 00:16:44;;;;;;;5.57;4.28;;;;;;;20.34;52.47;99393.78;5127190;28;20047;-71
2023/07/07 00:19:11;;;;;;;7.97;5.55;;;;;;;20.42;51.99;99393.91;5128269;28;20051;-71
2023/07/07 00:21:40;;;;;;;9.52;4.88;;;;;;;20.31;52.73;99391.38;5128117;28;20035;-71
2023/07/07 00:24:08;;;;;;;5.45;4.63;;;;;;;20.23;52.25;99394.81;5128195;28;20180;-71
2023/07/07 00:26:35;;;;;;;7.95;4.75;;;;;;;20.26;52.34;99405.28;5127836;28;20096;-71
2023/07/07 00:29:02;;;;;;;6.75;5.07;;;;;;;20.36;50.99;99413.34;5128062;28;20295;-71
2023/07/07 00:31:29;;;;;;;5.75;4.50;;;;;;;20.16;51.42;99407.09;5128014;28;20093;-71
2023/07/07 00:33:56;;;;;;;6.93;5.47;;;;;;;20.08;51.56;99406.97;5126632;28;20051;-71
2023/07/07 00:36:23;;;;;;;6.72;5.38;;;;;;;20.25;50.95;99408.97;5127896;28;20051;-71
2023/07/07 00:38:52;;;;;;;7.45;5.10;;;;;;;19.95;51.28;99393.81;5126757;28;20055;-71
2023/07/07 00:41:19;;;;;;;7.40;5.15;;;;;;;19.98;51.13;99388.16;5126651;28;20299;-71
2023/07/07 00:44:03;;;;;;;6.63;4.90;;;;;;;20.08;50.63;99406.97;5127776;28;20044;-70
2023/07/07 00:46:30;;;;;;;6.72;4.78;;;;;;;20.05;50.41;99405.44;5127779;28;20052;-71
2023/07/07 00:48:58;;;;;;;6.75;4.88;;;;;;;19.99;50.96;99411.38;5126898;28;20039;-71
2023/07/07 00:51:29;;;;;;;6.35;4.57;;;;;;;20.02;50.32;99412.94;5127893;28;20035;-70
2023/07/07 00:53:57;;;;;;;7.60;6.15;;;;;;;20.09;50.40;99406.84;5127271;28;20054;-70
2023/07/07 00:56:29;;;;;;;6.85;5.53;;;;;;;20.07;50.35;99411.50;5127800;28;20180;-70
2023/07/07 00:59:03;;;;;;;7.25;5.13;;;;;;;20.00;50.51;99412.22;5127486;28;20300;-70
2023/07/07 01:01:29;;;;;;;9.45;5.65;;;;;;;19.91;50.28;99421.16;5127233;28;20323;-70
2023/07/07 01:03:58;;;;;;;7.82;5.43;;;;;;;19.91;50.48;99419.31;5127672;28;20051;-70
2023/07/07 01:06:30;;;;;;;7.38;5.72;;;;;;;19.98;50.26;99428.50;5127320;28;20044;-70
2023/07/07 01:09:01;;;;;;;9.38;5.00;;;;;;;19.91;50.68;99426.53;5127274;28;20195;-70
2023/07/07 01:11:30;;;;;;;6.85;5.18;;;;;;;19.93;50.71;99427.25;5127171;28;20089;-70
2023/07/07 01:13:58;;;;;;;11.05;6.32;;;;;;;19.82;50.79;99430.91;5126621;28;20142;-74
2023/07/07 01:16:33;;;;;;;10.45;6.30;;;;;;;19.86;50.77;99432.34;5126856;28;20089;-70
2023/07/07 01:19:15;;;;;;;9.18;6.93;;;;;;;19.88;50.98;99434.88;5127394;28;20200;-70
2023/07/07 01:21:53;;;;;;;8.77;6.43;;;;;;;19.73;50.85;99415.59;5127265;28;20059;-71
2023/07/07 01:24:45;;;;;;;8.85;6.50;;;;;;;19.80;51.11;99428.38;5126998;28;20306;-70
2023/07/07 01:27:35;;;;;;;10.70;6.78;;;;;;;19.81;51.12;99431.91;5127209;28;20047;-71
2023/07/07 01:30:30;;;;;;;8.90;5.85;;;;;;;19.74;50.97;99431.59;5127352;28;20044;-71
2023/07/07 01:32:56;;;;;;;7.85;5.90;;;;;;;19.76;51.46;99429.63;5126391;28;20059;-70
2023/07/07 01:35:24;;;;;;;7.43;5.72;;;;;;;19.75;51.77;99437.81;5125985;28;20043;-70
2023/07/07 01:37:53;;;;;;;7.15;4.97;;;;;;;19.67;52.20;99443.91;5127051;28;20040;-71
2023/07/07 01:40:20;;;;;;;6.38;4.50;;;;;;;19.61;52.64;99441.78;5126974;28;20074;-71
2023/07/07 01:42:52;;;;;;;7.55;5.40;;;;;;;19.60;52.93;99442.75;5125590;28;20051;-70
2023/07/07 01:45:29;;;;;;;7.38;5.13;;;;;;;19.64;52.79;99441.50;5126699;28;20093;-70
2023/07/07 01:48:03;;;;;;;5.88;4.72;;;;;;;19.72;52.43;99446.16;5126645;28;20058;-70
2023/07/07 01:50:33;;;;;;;8.63;6.55;;;;;;;19.63;53.09;99441.63;5126631;28;20047;-70
2023/07/07 01:53:05;;;;;;;7.90;5.13;;;;;;;19.65;52.92;99453.09;5127106;28;20051;-70
2023/07/07 01:55:35;;;;;;;5.05;4.07;;;;;;;19.75;52.28;99451.25;5126795;28;20093;-69
2023/07/07 01:58:06;;;;;;;6.82;4.85;;;;;;;19.67;52.70;99448.44;5126180;28;20047;-70
2023/07/07 02:00:35;;;;;;;6.88;5.38;;;;;;;19.66;52.73;99454.78;5125623;28;20040;-70
2023/07/07 02:03:02;;;;;;;6.70;4.68;;;;;;;19.58;52.63;99455.50;5125093;28;20442;-70
2023/07/07 02:05:29;;;;;;;6.93;4.47;;;;;;;19.62;52.88;99456.06;5126407;28;20326;-71
2023/07/07 02:07:56;;;;;;;7.50;4.72;;;;;;;19.43;53.38;99457.72;5126360;28;20302;-70
2023/07/07 02:10:22;;;;;;;5.53;4.43;;;;;;;19.55;52.95;99464.69;5126389;28;20096;-70
2023/07/07 02:12:49;;;;;;;7.47;4.72;;;;;;;19.45;53.39;99463.81;5126333;28;20241;-70
2023/07/07 02:15:16;;;;;;;6.35;4.32;;;;;;;19.40;53.27;99475.97;5126575;28;20241;-70
2023/07/07 02:17:44;;;;;;;7.32;4.57;;;;;;;19.20;53.96;99458.91;5126599;28;20268;-71
2023/07/07 02:20:11;;;;;;;9.85;4.68;;;;;;;19.39;53.19;99474.28;5126000;28;20078;-70
2023/07/07 02:22:39;;;;;;;7.75;5.07;;;;;;;19.28;53.39;99475.19;5125591;28;20039;-70
2023/07/07 02:25:06;;;;;;;7.85;4.60;;;;;;;19.39;52.02;99483.19;5126221;28;20040;-71
2023/07/07 02:27:33;;;;;;;5.72;4.28;;;;;;;19.40;52.22;99487.56;5126491;28;20116;-70
2023/07/07 02:30:00;;;;;;;6.28;4.68;;;;;;;19.38;52.44;99484.13;5126116;28;20044;-71
2023/07/07 02:32:26;;;;;;;8.23;5.07;;;;;;;19.27;52.48;99480.72;5125601;28;20218;-71
2023/07/07 02:34:55;;;;;;;7.47;4.65;;;;;;;19.21;52.52;99484.78;5126428;28;20107;-70
2023/07/07 02:37:23;;;;;;;5.80;4.38;;;;;;;19.19;52.65;99484.94;5126006;28;20145;-71
2023/07/07 02:39:50;;;;;;;5.65;4.65;;;;;;;19.16;52.52;99478.97;5125799;28;20310;-71
2023/07/07 02:42:16;;;;;;;5.95;4.22;;;;;;;19.13;52.07;99485.47;5126235;28;20048;-71
2023/07/07 02:44:43;;;;;;;5.95;4.60;;;;;;;19.14;52.41;99480.94;5126043;28;20043;-71
2023/07/07 02:47:10;;;;;;;7.30;4.68;;;;;;;19.16;51.87;99487.03;5125947;28;20122;-71
2023/07/07 02:49:37;;;;;;;6.88;4.40;;;;;;;19.12;51.75;99480.22;5126273;28;20071;-71
2023/07/07 02:52:07;;;;;;;6.50;4.60;;;;;;;19.18;51.73;99487.75;5125698;28;20039;-71
2023/07/07 02:54:34;;;;;;;8.05;4.75;;;;;;;19.04;52.04;99491.66;5124818;28;20040;-70
2023/07/07 02:57:02;;;;;;;6.53;4.72;;;;;;;19.06;51.73;99489.69;5124764;28;20230;-70
2023/07/07 02:59:29;;;;;;;7.40;4.80;;;;;;;19.16;51.42;99493.25;5125623;28;20044;-69
2023/07/07 03:01:56;;;;;;;6.90;4.90;;;;;;;19.02;51.66;99495.47;5125745;28;20047;-70
2023/07/07 03:04:24;;;;;;;6.47;4.18;;;;;;;19.01;52.21;99501.81;5125588;28;20254;-70
2023/07/07 03:06:51;;;;;;;7.57;5.03;;;;;;;19.05;52.13;99503.25;5125525;28;20036;-70
2023/07/07 03:09:19;;;;;;;6.35;4.50;;;;;;;18.58;51.48;99419.66;5125843;28;20234;-71
2023/07/07 03:11:46;;;;;;;7.38;4.47;;;;;;;18.60;52.21;99457.94;5125768;28;20105;-70
2023/07/07 03:14:15;;;;;;;6.28;4.65;;;;;;;18.94;52.35;99501.50;5129416;28;20039;-71
2023/07/07 03:16:46;;;;;;;4.82;4.10;;;;;;;18.90;52.33;99506.28;5128395;28;20044;-70
2023/07/07 03:19:13;;;;;;;6.72;4.75;;;;;;;18.77;52.50;99483.31;5129740;28;20047;-70
2023/07/07 03:21:40;;;;;;;9.40;5.10;;;;;;;18.83;52.91;99510.50;5129065;28;20039;-70
2023/07/07 03:24:07;;;;;;;5.97;4.53;;;;;;;18.81;52.91;99516.97;5129352;28;20043;-71
2023/07/07 03:26:35;;;;;;;6.22;4.70;;;;;;;18.83;52.84;99515.00;5128408;28;20092;-71
2023/07/07 03:29:02;;;;;;;6.13;4.60;;;;;;;18.98;52.18;99521.72;5129254;28;20077;-70
2023/07/07 03:31:31;;;;;;;6.90;4.68;;;;;;;18.84;52.58;99525.63;5129117;28;20035;-71
2023/07/07 03:34:00;;;;;;;8.27;5.03;;;;;;;18.82;52.65;99524.91;5128785;28;20060;-71
2023/07/07 03:36:29;;;;;;;8.18;4.25;;;;;;;18.89;53.08;99526.06;5129406;28;20047;-71
2023/07/07 03:38:56;;;;;;;6.13;4.53;;;;;;;18.89;52.76;99517.16;5129370;28;20043;-70
2023/07/07 03:41:25;;;;;;;7.18;5.28;;;;;;;18.88;52.66;99523.53;5128932;28;20314;-70
2023/07/07 03:43:55;;;;;;;7.50;5.18;;;;;;;18.85;52.55;99521.94;5128971;28;20089;-70
2023/07/07 03:46:23;;;;;;;6.05;4.85;;;;;;;18.86;52.74;99523.66;5127840;28;20043;-71
2023/07/07 03:48:50;;;;;;;7.65;5.38;;;;;;;18.84;52.30;99541.72;5129451;28;20173;-70
2023/07/07 03:51:18;;;;;;;8.48;5.47;;;;;;;18.90;52.49;99526.94;5128600;28;20043;-71
2023/07/07 03:53:45;;;;;;;6.80;5.55;;;;;;;18.91;52.62;99531.31;5128247;28;20036;-70
2023/07/07 03:56:13;;;;;;;5.97;4.85;;;;;;;18.90;52.66;99533.16;5128771;28;20044;-70
2023/07/07 03:58:40;;;;;;;6.63;4.97;;;;;;;18.88;52.80;99529.75;5128444;28;20039;-71
2023/07/07 04:01:10;;;;;;;8.85;5.30;;;;;;;18.85;52.57;99538.06;5128493;28;20054;-71
2023/07/07 04:03:37;;;;;;;7.38;5.03;;;;;;;18.87;52.86;99530.72;5128642;28;20047;-71
2023/07/07 04:06:04;;;;;;;7.85;4.95;;;;;;;18.75;53.21;99539.84;5128284;28;20044;-70
2023/07/07 04:08:31;;;;;;;6.28;4.72;;;;;;;18.83;53.31;99536.50;5128855;28;20100;-71
2023/07/07 04:11:00;;;;;;;7.20;5.25;;;;;;;18.88;53.18;99545.84;5128005;27;20101;-70
2023/07/07 04:13:27;;;;;;;7.78;5.10;;;;;;;18.87;53.29;99536.09;5128361;28;20055;-70
2023/07/07 04:15:58;;;;;;;6.45;4.80;;;;;;;18.88;53.37;99545.84;5128611;28;20049;-71
2023/07/07 04:18:26;;;;;;;7.72;4.78;;;;;;;18.99;52.38;99550.28;5128150;28;20043;-71
2023/07/07 04:20:53;;;;;;;6.65;4.82;;;;;;;19.03;51.77;99551.72;5128295;28;20043;-71
2023/07/07 04:23:19;;;;;;;9.23;5.47;;;;;;;18.98;51.69;99548.59;5126857;28;20039;-71
2023/07/07 04:25:46;;;;;;;6.97;5.32;;;;;;;18.96;52.18;99550.56;5127222;28;20044;-71
2023/07/07 04:28:13;;;;;;;7.28;5.35;;;;;;;19.00;52.39;99556.50;5127842;28;20196;-71
2023/07/07 04:30:40;;;;;;;7.85;5.32;;;;;;;18.98;52.94;99562.03;5128304;28;20096;-71
2023/07/07 04:33:06;;;;;;;8.50;4.97;;;;;;;19.02;53.07;99567.97;5127759;28;20051;-71
2023/07/07 04:35:37;;;;;;;7.82;5.22;;;;;;;19.05;53.11;99562.34;5128249;28;20047;-71
2023/07/07 04:38:04;;;;;;;6.75;5.32;;;;;;;19.08;53.08;99564.75;5127852;28;20043;-70
2023/07/07 04:40:32;;;;;;;11.02;5.03;;;;;;;19.16;53.06;99565.78;5127884;28;20052;-71
2023/07/07 04:42:58;;;;;;;7.63;5.13;;;;;;;18.98;54.23;99572.75;5128068;28;20094;-70
2023/07/07 04:45:25;;;;;;;6.95;5.82;;;;;;;19.07;53.77;99574.66;5127795;28;20055;-71
2023/07/07 04:47:52;;;;;;;10.50;5.20;;;;;;;19.01;53.69;99568.97;5127986;28;20096;-71
2023/07/07 04:50:19;;;;;;;7.63;5.45;;;;;;;19.02;53.89;99576.03;5127349;28;20261;-70
2023/07/07 04:52:47;;;;;;;7.43;5.70;;;;;;;18.96;55.31;99577.41;5127571;28;20047;-71
2023/07/07 04:55:14;;;;;;;8.13;5.47;;;;;;;19.02;55.09;99578.72;5127568;28;20051;-70
2023/07/07 04:57:40;;;;;;;7.60;5.13;;;;;;;19.07;54.88;99576.50;5127502;28;20114;-70
2023/07/07 05:00:09;;;;;;;6.40;5.22;;;;;;;19.10;54.81;99576.22;5127720;28;20055;-71
2023/07/07 05:02:36;;;;;;;7.68;5.72;;;;;;;19.14;54.71;99575.81;5127349;28;20047;-71
2023/07/07 05:05:03;;;;;;;8.57;4.90;;;;;;;19.19;54.94;99586.16;5126857;28;20043;-71
2023/07/07 05:07:30;;;;;;;7.63;4.82;;;;;;;18.64;55.22;99502.34;5126242;28;20040;-71
2023/07/07 05:09:58;;;;;;;7.05;5.13;;;;;;;19.24;54.58;99584.78;5127522;28;20050;-70
2023/07/07 05:12:25;;;;;;;7.20;5.22;;;;;;;19.29;54.04;99583.53;5127515;28;20036;-71
2023/07/07 05:14:52;;;;;;;8.48;5.38;;;;;;;19.28;54.08;99580.00;5126906;28;20322;-70
2023/07/07 05:17:19;;;;;;;6.30;5.40;;;;;;;19.33;53.73;99583.13;5127162;28;20070;-71
2023/07/07 05:19:46;;;;;;;6.72;5.22;;;;;;;19.32;52.67;99581.41;5126797;28;20088;-71
2023/07/07 05:22:12;;;;;;;7.32;5.10;;;;;;;19.32;52.39;99588.63;5126963;28;20089;-71
2023/07/07 05:24:39;;;;;;;7.68;5.20;;;;;;;19.35;52.33;99594.59;5126139;28;20055;-70
2023/07/07 05:27:08;;;;;;;7.85;5.07;;;;;;;19.43;51.89;99585.88;5126990;28;20054;-71
2023/07/07 05:29:34;;;;;;;7.45;5.40;;;;;;;19.37;49.97;99583.69;5126929;28;20043;-71
2023/07/07 05:32:01;;;;;;;10.13;5.97;;;;;;;19.42;50.53;99594.94;5126989;28;20066;-71
2023/07/07 05:34:28;;;;;;;7.53;5.15;;;;;;;18.78;50.42;99475.13;5127137;28;20043;-70
2023/07/07 05:36:54;;;;;;;9.05;5.70;;;;;;;19.49;50.44;99593.41;5127023;28;20173;-71
2023/07/07 05:39:21;;;;;;;7.70;5.40;;;;;;;19.52;49.74;99599.38;5127026;28;20055;-70
2023/07/07 05:41:48;;;;;;;8.77;5.63;;;;;;;19.61;50.06;99596.84;5126681;28;20048;-71
2023/07/07 05:44:16;;;;;;;6.32;5.07;;;;;;;19.63;48.89;99595.72;5126983;28;20039;-71
2023/07/07 05:46:43;;;;;;;7.88;5.95;;;;;;;19.67;48.83;99601.69;5126968;28;20062;-71
2023/07/07 05:49:10;;;;;;;9.60;6.28;;;;;;;19.73;48.98;99601.13;5126625;28;20055;-71
2023/07/07 05:51:36;;;;;;;6.80;4.80;;;;;;;19.72;48.96;99602.97;5126547;28;20089;-71
2023/07/07 05:54:03;;;;;;;7.68;5.68;;;;;;;19.73;49.09;99610.06;5127383;28;20039;-71
2023/07/07 05:56:31;;;;;;;8.02;6.28;;;;;;;19.77;49.33;99605.25;5126736;28;20073;-71
2023/07/07 05:58:57;;;;;;;9.43;6.00;;;;;;;19.77;48.29;99605.25;5125297;28;20077;-71
2023/07/07 06:01:26;;;;;;;7.85;5.50;;;;;;;19.86;48.06;99609.84;5126398;28;20063;-71
2023/07/07 06:03:53;;;;;;;8.70;5.70;;;;;;;19.82;47.69;99606.56;5126528;28;20031;-71
2023/07/07 06:06:20;;;;;;;7.07;5.32;;;;;;;19.87;47.83;99606.16;5126692;28;20096;-70
2023/07/07 06:08:46;;;;;;;7.55;5.95;;;;;;;19.91;48.21;99609.44;5125277;28;20043;-71
2023/07/07 06:11:13;;;;;;;8.32;5.88;;;;;;;19.99;48.57;99618.50;5126338;28;20043;-70
2023/07/07 06:13:40;;;;;;;8.10;5.32;;;;;;;20.04;48.38;99612.72;5126307;28;20051;-71
2023/07/07 06:16:06;;;;;;;7.35;5.50;;;;;;;20.07;47.54;99615.13;5125135;28;20055;-70
2023/07/07 06:18:35;;;;;;;9.18;5.30;;;;;;;20.14;47.47;99619.81;5126849;28;20333;-70
2023/07/07 06:21:01;;;;;;;7.60;5.93;;;;;;;20.13;46.76;99618.13;5126272;28;20039;-71
2023/07/07 06:23:29;;;;;;;8.45;5.75;;;;;;;20.18;46.84;99625.78;5125814;28;20307;-71
2023/07/07 06:25:55;;;;;;;7.72;5.10;;;;;;;20.23;46.73;99623.53;5125937;28;20306;-70
2023/07/07 06:28:22;;;;;;;10.23;5.45;;;;;;;20.29;46.10;99622.97;5126204;28;20043;-71
2023/07/07 06:30:50;;;;;;;7.38;5.28;;;;;;;20.32;46.85;99627.25;5125877;28;20109;-71
2023/07/07 06:33:17;;;;;;;6.88;5.18;;;;;;;20.36;47.14;99628.66;5125676;28;20315;-71
2023/07/07 06:35:45;;;;;;;6.82;5.43;;;;;;;20.36;46.81;99631.34;5126091;28;20384;-70
2023/07/07 06:38:12;;;;;;;7.97;5.38;;;;;;;20.42;46.66;99628.09;5126043;28;20108;-70
2023/07/07 06:40:39;;;;;;;7.07;4.88;;;;;;;20.56;46.14;99633.06;5126344;28;20047;-71
2023/07/07 06:43:06;;;;;;;7.88;5.45;;;;;;;20.54;46.42;99631.50;5125848;28;20036;-71
2023/07/07 06:45:34;;;;;;;7.82;5.07;;;;;;;20.55;46.36;99631.38;5125992;28;20051;-70
2023/07/07 06:48:02;;;;;;;7.22;5.55;;;;;;;20.64;46.05;99627.81;5128135;28;20089;-70
2023/07/07 06:50:31;;;;;;;7.15;5.35;;;;;;;18.24;45.83;99231.22;5129644;28;20292;-70
2023/07/07 06:52:59;;;;;;;6.53;5.35;;;;;;;20.73;45.60;99634.19;5130050;28;20047;-71
2023/07/07 06:55:26;;;;;;;6.68;5.15;;;;;;;20.63;43.68;99636.03;5129537;28;20226;-71
2023/07/07 06:57:53;;;;;;;7.30;5.03;;;;;;;20.58;44.47;99623.00;5129548;28;20304;-71
2023/07/07 07:00:21;;;;;;;7.00;5.05;;;;;;;20.78;44.74;99629.22;5130101;28;20048;-71
2023/07/07 07:02:48;;;;;;;6.25;4.57;;;;;;;20.69;44.34;99630.94;5129685;28;20102;-71
2023/07/07 07:05:15;;;;;;;6.38;4.72;;;;;;;20.74;44.67;99633.19;5129631;28;20039;-70
2023/07/07 07:07:42;;;;;;;8.35;5.32;;;;;;;20.97;44.50;99631.06;5129352;28;20092;-71
2023/07/07 07:10:11;;;;;;;9.20;5.13;;;;;;;21.12;43.74;99629.63;5129636;28;20054;-71
2023/07/07 07:12:38;;;;;;;7.72;4.90;;;;;;;21.27;43.34;99636.28;5129602;28;20203;-70
2023/07/07 07:15:05;;;;;;;8.30;4.78;;;;;;;21.32;42.96;99635.84;5129836;28;20051;-70
2023/07/07 07:17:32;;;;;;;8.88;4.80;;;;;;;21.39;42.93;99637.78;5130055;28;20062;-71
2023/07/07 07:20:00;;;;;;;7.43;5.05;;;;;;;21.46;42.89;99633.50;5129440;28;20051;-70
2023/07/07 07:22:27;;;;;;;6.13;4.57;;;;;;;21.73;43.80;99630.00;5129615;28;20047;-71
2023/07/07 07:24:53;;;;;;;10.43;5.75;;;;;;;21.73;42.52;99640.78;5129380;28;20043;-71
2023/07/07 07:27:21;;;;;;;6.90;5.00;;;;;;;21.61;42.49;99619.56;5129603;28;20044;-71
2023/07/07 07:29:48;;;;;;;7.30;4.65;;;;;;;22.01;41.66;99638.13;5129215;28;20105;-71
2023/07/07 07:32:15;;;;;;;8.10;4.60;;;;;;;22.31;41.36;99640.50;5128924;28;20043;-71
2023/07/07 07:34:41;;;;;;;7.18;4.82;;;;;;;22.33;39.50;99648.44;5129399;28;20097;-71
2023/07/07 07:37:08;;;;;;;6.38;5.20;;;;;;;22.48;40.06;99644.25;5129090;28;20043;-71
2023/07/07 07:39:35;;;;;;;6.40;4.25;;;;;;;22.50;40.01;99644.09;5129239;28;20288;-71
2023/07/07 07:42:02;;;;;;;6.30;4.43;;;;;;;22.50;40.28;99644.09;5128991;28;20245;-70
2023/07/07 07:44:31;;;;;;;5.80;4.57;;;;;;;22.63;40.08;99642.72;5128876;28;20043;-71
2023/07/07 07:46:59;;;;;;;6.60;4.68;;;;;;;22.93;39.88;99643.34;5129071;28;20169;-71
2023/07/07 07:49:27;;;;;;;7.07;4.32;;;;;;;23.28;39.34;99645.16;5128885;28;20052;-72
2023/07/07 07:51:54;;;;;;;7.13;3.90;;;;;;;23.38;38.86;99639.63;5128709;27;20043;-71
2023/07/07 07:54:23;;;;;;;8.32;4.03;;;;;;;23.48;38.31;99646.63;5128769;28;20046;-71
2023/07/07 07:56:50;;;;;;;6.05;4.72;;;;;;;23.67;38.43;99643.69;5128425;28;20058;-70
2023/07/07 07:59:17;;;;;;;10.63;4.63;;;;;;;24.00;38.35;99646.56;5127378;27;20043;-71
2023/07/07 08:01:45;;;;;;;6.65;5.05;;;;;;;24.15;38.21;99647.63;5128393;28;20044;-71
2023/07/07 08:04:12;;;;;;;6.07;4.25;;;;;;;24.32;37.83;99646.66;5127385;28;20044;-71
2023/07/07 08:06:39;;;;;;;5.70;4.47;;;;;;;24.53;38.02;99648.06;5128524;28;20065;-71
2023/07/07 08:09:06;;;;;;;10.55;4.70;;;;;;;24.56;36.60;99653.16;5128728;28;20165;-71
2023/07/07 08:11:59;;;;;;;6.55;4.82;;;;;;;24.51;37.45;99650.94;5128418;28;20092;-71
2023/07/07 08:14:31;;;;;;;6.13;4.10;;;;;;;24.25;37.17;99582.50;5127107;28;20036;-71
2023/07/07 08:17:02;;;;;;;8.88;5.32;;;;;;;24.76;36.96;99657.28;5128064;28;20048;-71
2023/07/07 08:19:31;;;;;;;7.45;4.90;;;;;;;24.90;36.25;99653.03;5128046;28;20043;-71
2023/07/07 08:21:58;;;;;;;7.00;4.30;;;;;;;24.95;36.50;99616.28;5127898;27;20081;-71
2023/07/07 08:24:26;;;;;;;6.35;4.47;;;;;;;25.37;36.15;99652.41;5127911;28;20047;-71
2023/07/07 08:26:53;;;;;;;6.20;4.30;;;;;;;25.23;36.26;99659.34;5127898;28;20061;-71
2023/07/07 08:29:20;;;;;;;6.65;4.95;;;;;;;25.56;35.70;99661.00;5126975;28;20207;-71
2023/07/07 08:31:46;;;;;;;6.85;4.93;;;;;;;25.68;36.21;99656.06;5128297;28;20169;-71
2023/07/07 08:34:15;;;;;;;7.00;4.47;;;;;;;25.37;35.19;99657.81;5127620;27;20047;-71
2023/07/07 08:36:42;;;;;;;6.55;4.53;;;;;;;25.72;36.23;99656.56;5128213;28;20203;-71
2023/07/07 08:39:12;;;;;;;9.27;6.63;;;;;;;25.90;35.04;99655.31;5127938;28;20054;-71
2023/07/07 08:41:43;;;;;;;8.13;6.03;;;;;;;25.99;34.46;99658.00;5127609;28;20273;-71
2023/07/07 08:44:13;;;;;;;6.82;4.75;;;;;;;25.40;34.39;99603.22;5127753;28;20048;-71
2023/07/07 08:46:52;;;;;;;5.82;4.43;;;;;;;26.13;35.26;99654.56;5126653;28;20032;-72
2023/07/07 08:49:25;;;;;;;5.95;4.53;;;;;;;26.27;34.97;99658.38;5127947;28;20115;-71
2023/07/07 08:52:00;;;;;;;10.45;5.78;;;;;;;26.47;34.19;99655.03;5126546;28;20080;-72
2023/07/07 08:54:33;;;;;;;11.50;4.65;;;;;;;26.15;33.49;99587.31;5127365;28;20051;-71
2023/07/07 08:57:06;;;;;;;5.40;4.20;;;;;;;26.50;32.55;99651.97;5127811;28;20080;-72
2023/07/07 08:59:41;;;;;;;7.93;4.60;;;;;;;26.61;33.06;99650.75;5126847;28;20308;-72
2023/07/07 09:02:20;;;;;;;6.47;4.32;;;;;;;26.55;32.81;99649.56;5127628;28;20066;-72
2023/07/07 09:05:00;;;;;;;5.65;3.90;;;;;;;26.57;32.96;99651.25;5127011;28;20059;-71
2023/07/07 09:07:45;;;;;;;7.35;4.00;;;;;;;26.43;31.80;99637.41;5127560;28;20042;-71
2023/07/07 09:10:36;;;;;;;5.82;4.60;;;;;;;26.81;32.97;99651.09;5126764;28;20047;-72
2023/07/07 09:13:07;;;;;;;4.90;3.80;;;;;;;26.75;32.47;99646.38;5127278;28;20036;-72
2023/07/07 09:15:38;;;;;;;6.43;4.22;;;;;;;26.99;32.13;99642.63;5127507;28;20057;-72
2023/07/07 09:18:17;;;;;;;8.57;4.53;;;;;;;26.36;32.00;99549.47;5126970;28;20051;-71
2023/07/07 09:20:55;;;;;;;7.78;4.13;;;;;;;26.98;31.01;99627.34;5127177;28;20054;-72
2023/07/07 09:23:25;;;;;;;7.60;3.83;;;;;;;27.00;31.80;99641.59;5126851;28;20043;-71
2023/07/07 09:25:58;;;;;;;6.85;3.63;;;;;;;26.81;30.43;99642.94;5127232;28;20096;-71
2023/07/07 09:28:28;;;;;;;8.95;4.03;;;;;;;26.87;30.94;99639.50;5126988;28;20295;-71
2023/07/07 09:30:59;;;;;;;6.38;4.25;;;;;;;27.07;30.57;99639.84;5126640;28;20042;-71
2023/07/07 09:33:27;;;;;;;6.28;3.92;;;;;;;27.04;30.70;99624.72;5126455;28;20068;-71
2023/07/07 09:36:14;;;;;;;5.03;3.85;;;;;;;26.55;30.75;99550.88;5126719;27;20040;-71
2023/07/07 09:38:53;;;;;;;5.93;3.58;;;;;;;27.17;30.46;99645.88;5126748;28;20296;-72
2023/07/07 09:41:30;;;;;;;5.65;3.20;;;;;;;27.22;30.01;99639.88;5126728;28;20057;-71
2023/07/07 09:44:15;;;;;;;4.65;3.25;;;;;;;27.28;29.68;99636.44;5125208;28;20039;-72
2023/07/07 09:46:48;;;;;;;7.72;3.85;;;;;;;27.23;29.08;99642.44;5126870;28;20096;-71
2023/07/07 09:49:22;;;;;;;5.78;4.28;;;;;;;27.50;29.19;99641.81;5126765;28;20051;-71
2023/07/07 09:51:54;;;;;;;11.77;4.63;;;;;;;27.57;29.29;99633.75;5125678;28;20055;-72
2023/07/07 09:54:23;;;;;;;6.10;4.03;;;;;;;27.69;28.57;99629.56;5126476;28;20053;-72
2023/07/07 09:56:57;;;;;;;4.90;3.60;;;;;;;27.57;28.10;99628.31;5125932;28;20048;-72
2023/07/07 09:59:30;;;;;;;5.70;4.07;;;;;;;27.64;28.55;99632.00;5126124;28;20212;-72
2023/07/07 10:01:57;;;;;;;5.10;3.40;;;;;;;27.79;29.21;99630.13;5126034;28;20070;-71
2023/07/07 10:04:28;;;;;;;6.10;3.45;;;;;;;27.78;28.40;99620.25;5126348;28;20039;-72
2023/07/07 10:06:59;;;;;;;5.10;3.67;;;;;;;26.10;29.00;99285.56;5126321;28;20350;-72
2023/07/07 10:09:28;;;;;;;5.07;3.53;;;;;;;27.89;27.68;99626.28;5126148;28;20039;-72
2023/07/07 10:11:56;;;;;;;6.20;4.28;;;;;;;27.64;27.79;99633.88;5126261;28;20067;-75
2023/07/07 10:14:27;;;;;;;7.70;4.32;;;;;;;27.65;27.79;99628.25;5126288;28;20102;-74
2023/07/07 10:17:02;;;;;;;5.93;3.88;;;;;;;27.76;28.38;99633.22;5126158;28;20051;-73
2023/07/07 10:19:29;;;;;;;5.00;3.90;;;;;;;27.92;28.16;99626.75;5126341;28;20119;-73
2023/07/07 10:21:57;;;;;;;5.35;4.10;;;;;;;27.89;29.03;99618.97;5125972;28;20047;-73
2023/07/07 10:24:23;;;;;;;6.07;3.58;;;;;;;28.11;29.92;99620.72;5130690;28;20050;-73
2023/07/07 10:26:50;;;;;;;4.97;3.55;;;;;;;27.35;29.07;99618.34;5130148;28;20104;-74
2023/07/07 10:29:22;;;;;;;5.88;3.15;;;;;;;27.21;30.48;99621.84;5130734;28;20104;-74
2023/07/07 10:31:50;;;;;;;5.78;3.65;;;;;;;27.71;30.83;99622.03;5130308;28;20043;-73
2023/07/07 10:34:36;;;;;;;5.05;3.35;;;;;;;27.82;30.41;99618.00;5130543;28;20051;-73
2023/07/07 10:37:17;;;;;;;4.95;3.30;;;;;;;27.82;32.20;99618.00;5129107;28;20092;-73
2023/07/07 10:39:49;;;;;;;4.50;3.45;;;;;;;27.81;28.99;99614.44;5129816;28;20192;-74
2023/07/07 10:42:15;;;;;;;5.30;3.20;;;;;;;27.88;28.61;99620.00;5130132;28;20055;-73
2023/07/07 10:44:42;;;;;;;4.63;3.35;;;;;;;27.86;29.01;99602.16;5130283;28;20035;-74
2023/07/07 10:47:09;;;;;;;6.25;3.78;;;;;;;27.89;32.25;99620.84;5129819;28;20215;-73
2023/07/07 10:49:36;;;;;;;6.25;3.42;;;;;;;27.79;31.58;99621.94;5129992;28;20101;-73
2023/07/07 10:52:29;;;;;;;5.65;4.28;;;;;;;28.12;28.67;99618.84;5129465;28;20216;-73
2023/07/07 10:55:04;;;;;;;6.90;3.67;;;;;;;27.83;28.30;99545.31;5130004;28;20047;-73
2023/07/07 10:57:42;;;;;;;4.20;2.97;;;;;;;27.47;26.37;99516.16;5130098;28;20069;-72
2023/07/07 11:00:26;;;;;;;4.38;3.10;;;;;;;27.75;26.58;99592.56;5129729;28;20060;-73
2023/07/07 11:03:16;;;;;;;4.90;3.13;;;;;;;27.72;27.01;99612.84;5129411;28;20088;-74
2023/07/07 11:05:48;;;;;;;4.20;2.90;;;;;;;27.98;26.65;99608.81;5129960;28;20051;-74
2023/07/07 11:08:31;;;;;;;4.70;3.20;;;;;;;28.09;29.50;99603.72;5129389;28;20238;-73
2023/07/07 11:11:12;;;;;;;6.25;3.20;;;;;;;27.81;24.67;99595.38;5129657;28;20059;-74
2023/07/07 11:13:54;;;;;;;5.40;3.10;;;;;;;27.52;26.04;99549.09;5129269;28;20044;-74
2023/07/07 11:16:31;;;;;;;5.15;3.78;;;;;;;27.92;25.38;99604.13;5129676;28;20039;-73
2023/07/07 11:19:09;;;;;;;4.65;3.30;;;;;;;28.08;26.02;99609.34;5129455;28;20055;-73
2023/07/07 11:21:50;;;;;;;4.90;3.40;;;;;;;28.10;27.18;99604.56;5128401;28;20040;-74
2023/07/07 11:24:25;;;;;;;4.93;3.40;;;;;;;28.29;25.65;99600.38;5129185;28;20096;-74
2023/07/07 11:27:31;;;;;;;5.53;3.38;;;;;;;28.22;24.83;99602.19;5129534;28;20052;-74
2023/07/07 11:30:05;;;;;;;5.00;3.17;;;;;;;28.33;26.60;99599.78;5128155;28;20040;-73
2023/07/07 11:32:37;;;;;;;;;;;;;;;28.32;27.02;99594.53;5129260;28;20066;-74
2023/07/07 11:35:33;;;;;;;4.53;2.60;;;;;;;28.06;29.03;99597.81;5129184;28;19916;-74
2023/07/07 11:38:20;;;;;;;6.22;3.90;;;;;;;28.32;27.09;99602.72;5129076;28;20086;-74
2023/07/07 11:41:12;;;;;;;4.80;3.55;;;;;;;28.41;26.07;99596.94;5128995;28;20059;-74
2023/07/07 11:44:12;;;;;;;6.70;5.13;;;;;;;28.49;25.63;99603.34;5128511;28;20043;-74
2023/07/07 11:47:01;;;;;;;5.15;4.20;;;;;;;28.45;25.44;99591.97;5127718;28;20043;-75
2023/07/07 11:49:41;;;;;;;6.82;3.40;;;;;;;28.24;25.42;99598.22;5128404;28;20052;-74